Amarillo, TX

6:35 PM CST on January 31, 2015 (GMT -0600)
Oliver-Eakle | Change Station
CLOSE
Current Station
Personal Weather Station
Location: Amarillo, TX
Elevation: 3678 ft
Nearby Weather Stations

Elev 3678 ft 35.19 °N, 101.84 °W | Updated 0 second ago

Overcast
Overcast
40.4 °F
Feels Like 40 °F
N
1.9
Wind Variable Wind from SSW
Gusts 3.5 mph

Today
High -- | Low -- °F
--% Chance of Precip.
Yesterday
High -- | Low -- °F
Precip. -- in
7:47 AM 6:14 PM
Waxing Gibbous, 92% visible
Pressure 29.85 in
Visibility 10.0 miles
Clouds Overcast 900 ft
Windchill 40 °F
Dew Point 38 °F
Humidity 93%
Rainfall 0.42 in
Snow Depth Not available.
UV 0 out of 12
Pollen 1.70 out of 12
Air Quality Not available.
Flu Activity Not available.
METAR KAMA 312353Z 20010KT 10SM OVC009 04/04 A2984 RMK AO2 SLP107 60003 T00440039 10044 20017 56007

More Conditions Fewer Conditions

Pressure 29.85 in
Visibility 10.0 miles
Clouds Overcast 900 ft
Windchill 40 °F
Dew Point 38 °F
Humidity 93%
Rainfall 0.42 in
Snow Depth Not available.
UV 0 out of 12
Pollen 1.70 out of 12
Air Quality Not available.
Flu Activity Not available.
METAR KAMA 312353Z 20010KT 10SM OVC009 04/04 A2984 RMK AO2 SLP107 60003 T00440039 10044 20017 56007

More Conditions Fewer Conditions

10-Day Weather Forecast

Almanac

Astronomy

Jan. 31, 2015 Rise Set
Actual Time
Civil Twilight
Nautical Twilight
Astronomical Twilight
Moon
Length of Visible Light
Length of Day
Tomorrow will be .
, % of the Moon is Illuminated

Today's Extremes

State Highs State Lows

Community

WunderPhotos

Upload Photos

1,792,262 photos uploaded!

WunderBlogs® & News

Nearby

Air Quality

  Air Quality AQ Index Pollutant
Not available.

Snow Depth

Station Depth Elevation

Earthquake Activity

City Distance Mag. Time & Date
Minimum magnitude displayed is 2.5.

Coastal Water Temperatures

Place Temperature

Nearby Weather Stations